createdAt,value
2022-11-23T00:00:08.377Z,990.22
2022-11-23T00:01:08.529Z,990.27
2022-11-23T00:02:08.736Z,990.20
2022-11-23T00:03:09.022Z,990.20
2022-11-23T00:04:09.504Z,990.22
2022-11-23T00:05:09.258Z,990.17
2022-11-23T00:06:09.413Z,990.29
2022-11-23T00:07:09.596Z,990.27
2022-11-23T00:08:09.767Z,990.31
2022-11-23T00:09:09.943Z,990.19
2022-11-23T00:10:10.113Z,990.26
2022-11-23T00:11:10.311Z,990.26
2022-11-23T00:12:11.037Z,990.28
2022-11-23T00:13:10.666Z,990.20
2022-11-23T00:14:11.495Z,990.15
2022-11-23T00:15:11.007Z,990.18
2022-11-23T00:16:11.181Z,990.20
2022-11-23T00:17:11.358Z,990.28
2022-11-23T00:18:11.529Z,990.21
2022-11-23T00:19:11.674Z,990.18
2022-11-23T00:20:11.839Z,990.14
2022-11-23T00:21:12.499Z,990.23
2022-11-23T00:22:12.175Z,990.31
2022-11-23T00:23:12.998Z,990.29
2022-11-23T00:24:12.521Z,990.28
2022-11-23T00:25:12.734Z,990.25
2022-11-23T00:26:12.833Z,990.25
2022-11-23T00:27:13.022Z,990.21
2022-11-23T00:28:14.997Z,990.39
2022-11-23T00:29:13.392Z,990.36
2022-11-23T00:30:13.573Z,990.22
2022-11-23T00:31:13.737Z,990.35
2022-11-23T00:32:14.014Z,990.37
2022-11-23T00:33:14.072Z,990.34
2022-11-23T00:34:14.262Z,990.37
2022-11-23T00:35:14.444Z,990.29
2022-11-23T00:36:14.618Z,990.36
2022-11-23T00:37:14.780Z,990.35
2022-11-23T00:38:14.969Z,990.34
2022-11-23T00:39:15.157Z,990.27
2022-11-23T00:40:15.365Z,990.37
2022-11-23T00:41:15.568Z,990.38
2022-11-23T00:42:15.736Z,990.34
2022-11-23T00:43:15.926Z,990.36
2022-11-23T00:44:16.084Z,990.30
2022-11-23T00:45:16.517Z,990.35
2022-11-23T00:46:16.448Z,990.37
2022-11-23T00:47:16.605Z,990.35
2022-11-23T00:48:16.775Z,990.30
2022-11-23T00:49:16.936Z,990.36
2022-11-23T00:50:17.091Z,990.33
2022-11-23T00:51:17.261Z,990.33
2022-11-23T00:52:17.409Z,990.28
2022-11-23T00:53:17.585Z,990.37
2022-11-23T00:54:18.509Z,990.33
2022-11-23T00:55:17.900Z,990.36
2022-11-23T00:56:18.532Z,990.29
2022-11-23T00:57:18.186Z,990.36
2022-11-23T00:58:18.362Z,990.33
2022-11-23T00:59:18.535Z,990.27
2022-11-23T01:00:18.700Z,990.26
2022-11-23T01:01:18.924Z,990.40
2022-11-23T01:02:18.988Z,990.31
2022-11-23T01:03:20.011Z,990.39
2022-11-23T01:04:19.258Z,990.36
2022-11-23T01:05:19.519Z,990.42
2022-11-23T01:06:19.666Z,990.42
2022-11-23T01:07:19.845Z,990.36
2022-11-23T01:08:20.047Z,990.38
2022-11-23T01:09:20.206Z,990.36
2022-11-23T01:10:20.368Z,990.40
2022-11-23T01:11:20.505Z,990.43
2022-11-23T01:12:20.659Z,990.46
2022-11-23T01:13:20.803Z,990.53
2022-11-23T01:14:20.967Z,990.43
2022-11-23T01:15:21.125Z,990.39
2022-11-23T01:16:24.090Z,990.40
2022-11-23T01:17:22.464Z,990.44
2022-11-23T01:18:21.598Z,990.46
2022-11-23T01:19:21.752Z,990.50
2022-11-23T01:20:21.890Z,990.44
2022-11-23T01:21:22.077Z,990.43
2022-11-23T01:22:22.239Z,990.41
2022-11-23T01:23:23.011Z,990.53
2022-11-23T01:24:23.516Z,990.48
2022-11-23T01:25:22.798Z,990.52
2022-11-23T01:26:22.965Z,990.60
2022-11-23T01:27:23.527Z,990.55
2022-11-23T01:28:23.299Z,990.59
2022-11-23T01:29:24.014Z,990.57
2022-11-23T01:30:23.695Z,990.62
2022-11-23T01:31:23.914Z,990.59
2022-11-23T01:32:24.111Z,990.56
2022-11-23T01:33:24.340Z,990.53
2022-11-23T01:34:24.538Z,990.57
2022-11-23T01:35:25.517Z,990.67
2022-11-23T01:36:24.954Z,990.66
2022-11-23T01:37:25.164Z,990.61
2022-11-23T01:38:25.360Z,990.64
2022-11-23T01:39:25.550Z,990.66
2022-11-23T01:40:25.732Z,990.70
2022-11-23T01:41:26.032Z,990.71
2022-11-23T01:42:27.015Z,990.64
2022-11-23T01:43:26.283Z,990.71
2022-11-23T01:44:26.511Z,990.78
2022-11-23T01:45:26.714Z,990.64
2022-11-23T01:46:26.885Z,990.74
2022-11-23T01:47:27.034Z,990.74
2022-11-23T01:48:27.215Z,990.80
2022-11-23T01:49:27.530Z,990.75
2022-11-23T01:50:27.548Z,990.78
2022-11-23T01:51:27.722Z,990.73
2022-11-23T01:52:27.918Z,990.76
2022-11-23T01:53:29.020Z,990.75
2022-11-23T01:54:28.302Z,990.72
2022-11-23T01:55:28.450Z,990.81
2022-11-23T01:56:28.608Z,990.75
2022-11-23T01:57:28.780Z,990.80
2022-11-23T01:58:28.931Z,990.77
2022-11-23T01:59:29.704Z,990.81
2022-11-23T02:00:30.017Z,990.73
2022-11-23T02:01:29.624Z,990.79
2022-11-23T02:02:29.583Z,990.81
2022-11-23T02:03:29.740Z,990.78
2022-11-23T02:04:29.876Z,990.83
2022-11-23T02:05:30.054Z,990.80
2022-11-23T02:06:30.211Z,990.77
2022-11-23T02:07:30.450Z,990.71
2022-11-23T02:08:30.509Z,990.76
2022-11-23T02:09:31.907Z,990.80
2022-11-23T02:10:31.529Z,990.76
2022-11-23T02:11:32.021Z,990.73
2022-11-23T02:12:31.532Z,990.72
2022-11-23T02:13:32.024Z,990.70
2022-11-23T02:14:31.559Z,990.74
2022-11-23T02:15:31.717Z,990.72
2022-11-23T02:16:31.890Z,990.70
2022-11-23T02:17:32.047Z,990.73
2022-11-23T02:18:33.049Z,990.72
2022-11-23T02:19:32.772Z,990.69
2022-11-23T02:20:32.640Z,990.78
2022-11-23T02:21:32.788Z,990.71
2022-11-23T02:22:32.953Z,990.76
2022-11-23T02:23:33.095Z,990.79
2022-11-23T02:24:34.262Z,990.74
2022-11-23T02:25:33.364Z,990.76
2022-11-23T02:26:33.541Z,990.80
2022-11-23T02:27:34.525Z,990.69
2022-11-23T02:28:33.912Z,990.75
2022-11-23T02:29:34.291Z,990.77
2022-11-23T02:30:34.268Z,990.76
2022-11-23T02:31:34.423Z,990.77
2022-11-23T02:32:34.570Z,990.75
2022-11-23T02:33:34.724Z,990.73
2022-11-23T02:34:34.867Z,990.72
2022-11-23T02:35:35.044Z,990.74
2022-11-23T02:36:35.212Z,990.78
2022-11-23T02:37:35.359Z,990.74
2022-11-23T02:38:35.497Z,990.70
2022-11-23T02:39:36.529Z,990.82
2022-11-23T02:40:36.044Z,990.79
2022-11-23T02:41:36.032Z,990.77
2022-11-23T02:42:37.432Z,990.78
2022-11-23T02:43:36.292Z,990.76
2022-11-23T02:44:36.429Z,990.78
2022-11-23T02:45:36.588Z,990.80
2022-11-23T02:46:36.716Z,990.77
2022-11-23T02:47:36.908Z,990.78
2022-11-23T02:48:37.047Z,990.81
2022-11-23T02:49:37.159Z,990.84
2022-11-23T02:50:37.401Z,990.77
2022-11-23T02:51:37.531Z,990.77
2022-11-23T02:52:38.044Z,990.82
2022-11-23T02:53:37.883Z,990.75
2022-11-23T02:54:37.998Z,990.75
2022-11-23T02:55:38.125Z,990.83
2022-11-23T02:56:38.358Z,990.83
2022-11-23T02:57:38.616Z,990.85
2022-11-23T02:58:39.049Z,990.81
2022-11-23T02:59:38.888Z,990.76
2022-11-23T03:00:39.134Z,990.75
2022-11-23T03:01:39.313Z,990.77
2022-11-23T03:02:39.444Z,990.79
2022-11-23T03:03:39.585Z,990.77
2022-11-23T03:04:39.707Z,990.82
2022-11-23T03:05:39.843Z,990.77
2022-11-23T03:06:40.007Z,990.78
2022-11-23T03:07:40.601Z,990.79
2022-11-23T03:08:40.398Z,990.74
2022-11-23T03:09:41.536Z,990.77
2022-11-23T03:10:40.810Z,990.77
2022-11-23T03:11:40.951Z,990.75
2022-11-23T03:12:41.091Z,990.72
2022-11-23T03:13:41.239Z,990.78
2022-11-23T03:14:41.410Z,990.83
2022-11-23T03:15:41.540Z,990.77
2022-11-23T03:16:41.680Z,990.70
2022-11-23T03:17:41.803Z,990.72
2022-11-23T03:18:41.940Z,990.73
2022-11-23T03:19:42.076Z,990.77
2022-11-23T03:20:42.220Z,990.74
2022-11-23T03:21:42.391Z,990.77
2022-11-23T03:22:43.040Z,990.76
2022-11-23T03:23:43.060Z,990.83
2022-11-23T03:24:43.528Z,990.87
2022-11-23T03:25:44.056Z,990.84
2022-11-23T03:26:43.195Z,990.80
2022-11-23T03:27:43.353Z,990.83
2022-11-23T03:28:44.037Z,990.81
2022-11-23T03:29:43.659Z,990.80
2022-11-23T03:30:43.835Z,990.76
2022-11-23T03:31:44.019Z,990.79
2022-11-23T03:32:44.202Z,990.83
2022-11-23T03:33:45.043Z,990.80
2022-11-23T03:34:44.540Z,990.80
2022-11-23T03:35:44.718Z,990.80
2022-11-23T03:36:44.846Z,990.84
2022-11-23T03:37:45.014Z,990.78
2022-11-23T03:38:45.163Z,990.80
2022-11-23T03:39:47.638Z,990.79
2022-11-23T03:40:46.444Z,990.70
2022-11-23T03:41:45.717Z,990.76
2022-11-23T03:42:45.907Z,990.81
2022-11-23T03:43:46.041Z,990.83
2022-11-23T03:44:46.554Z,990.83
2022-11-23T03:45:46.325Z,990.81
2022-11-23T03:46:47.042Z,990.82
2022-11-23T03:47:46.671Z,990.83
2022-11-23T03:48:46.844Z,990.81
2022-11-23T03:49:46.988Z,990.74
2022-11-23T03:50:47.185Z,990.75
2022-11-23T03:51:48.044Z,990.75
2022-11-23T03:52:47.530Z,990.84
2022-11-23T03:53:48.060Z,990.78
2022-11-23T03:54:47.847Z,990.76
2022-11-23T03:55:48.002Z,990.73
2022-11-23T03:56:48.147Z,990.82
2022-11-23T03:57:48.296Z,990.79
2022-11-23T03:58:48.447Z,990.88
2022-11-23T03:59:49.545Z,990.83
2022-11-23T04:00:48.828Z,990.83
2022-11-23T04:01:49.020Z,990.83
2022-11-23T04:02:49.157Z,990.91
2022-11-23T04:03:49.281Z,990.87
2022-11-23T04:04:49.409Z,990.88
2022-11-23T04:05:49.660Z,990.88
2022-11-23T04:06:49.782Z,990.86
2022-11-23T04:07:50.116Z,990.88
2022-11-23T04:08:51.190Z,990.83
2022-11-23T04:09:50.397Z,990.90
2022-11-23T04:10:50.549Z,990.80
2022-11-23T04:11:50.679Z,990.90
2022-11-23T04:12:51.060Z,990.86
2022-11-23T04:13:50.984Z,990.90
2022-11-23T04:14:51.127Z,990.87
2022-11-23T04:15:52.054Z,990.89
2022-11-23T04:16:51.434Z,990.90
2022-11-23T04:17:51.595Z,990.86
2022-11-23T04:18:51.743Z,990.87
2022-11-23T04:19:51.874Z,990.85
2022-11-23T04:20:52.099Z,990.90
2022-11-23T04:21:52.242Z,990.83
2022-11-23T04:22:53.052Z,990.87
2022-11-23T04:23:52.557Z,990.82
2022-11-23T04:24:52.707Z,990.84
2022-11-23T04:25:52.844Z,990.80
2022-11-23T04:26:52.982Z,990.85
2022-11-23T04:27:53.111Z,990.92
2022-11-23T04:28:53.262Z,990.83
2022-11-23T04:29:53.406Z,990.80
2022-11-23T04:30:53.529Z,990.87
2022-11-23T04:31:53.672Z,990.99
2022-11-23T04:32:53.813Z,990.85
2022-11-23T04:33:53.979Z,990.86
2022-11-23T04:34:54.127Z,990.92
2022-11-23T04:35:54.266Z,990.84
2022-11-23T04:36:54.418Z,990.82
2022-11-23T04:37:54.575Z,990.94
2022-11-23T04:38:54.718Z,990.93
2022-11-23T04:39:55.067Z,990.88
2022-11-23T04:40:55.077Z,990.96
2022-11-23T04:41:55.202Z,990.85
2022-11-23T04:43:00.223Z,990.86
2022-11-23T04:43:57.570Z,990.94
2022-11-23T04:44:55.777Z,990.96
2022-11-23T04:45:55.920Z,990.99
2022-11-23T04:46:56.051Z,990.95
2022-11-23T04:47:56.214Z,991.02
2022-11-23T04:48:56.364Z,990.98
2022-11-23T04:49:56.530Z,990.95
2022-11-23T04:50:56.678Z,990.97
2022-11-23T04:51:56.835Z,990.98
2022-11-23T04:52:56.968Z,990.95
2022-11-23T04:53:57.106Z,991.00
2022-11-23T04:54:57.235Z,991.02
2022-11-23T04:55:57.383Z,991.09
2022-11-23T04:56:57.528Z,991.06
2022-11-23T04:57:58.561Z,991.00
2022-11-23T04:58:57.811Z,991.01
2022-11-23T04:59:57.927Z,991.12
2022-11-23T05:00:58.089Z,990.99
2022-11-23T05:01:58.291Z,991.00
2022-11-23T05:02:58.463Z,991.00
2022-11-23T05:03:58.618Z,991.08
2022-11-23T05:04:58.774Z,990.98
2022-11-23T05:05:58.908Z,991.10
2022-11-23T05:06:59.058Z,991.00
2022-11-23T05:07:59.192Z,990.99
2022-11-23T05:08:59.328Z,991.00
2022-11-23T05:09:59.508Z,991.04
2022-11-23T05:10:59.662Z,991.10
2022-11-23T05:11:59.904Z,991.12
2022-11-23T05:13:00.042Z,991.13
2022-11-23T05:14:01.215Z,991.15
2022-11-23T05:15:00.387Z,991.13
2022-11-23T05:16:00.539Z,991.13
2022-11-23T05:17:00.695Z,991.13
2022-11-23T05:18:00.859Z,991.05
2022-11-23T05:19:01.026Z,991.17
2022-11-23T05:20:01.194Z,991.14
2022-11-23T05:21:01.342Z,991.10
2022-11-23T05:22:01.488Z,991.15
2022-11-23T05:23:01.663Z,991.16
2022-11-23T05:24:01.823Z,991.09
2022-11-23T05:25:02.566Z,991.17
2022-11-23T05:26:02.204Z,991.16
2022-11-23T05:27:02.372Z,991.19
2022-11-23T05:28:11.335Z,991.14
2022-11-23T05:29:04.657Z,991.17
2022-11-23T05:30:02.885Z,991.13
2022-11-23T05:31:03.046Z,991.09
2022-11-23T05:32:03.194Z,991.15
2022-11-23T05:33:03.384Z,991.18
2022-11-23T05:34:03.546Z,991.17
2022-11-23T05:35:03.710Z,991.18
2022-11-23T05:36:03.868Z,991.23
2022-11-23T05:37:04.042Z,991.26
2022-11-23T05:38:04.579Z,991.21
2022-11-23T05:39:04.353Z,991.27
2022-11-23T05:40:04.504Z,991.29
2022-11-23T05:41:04.663Z,991.31
2022-11-23T05:42:04.798Z,991.35
2022-11-23T05:43:04.956Z,991.31
2022-11-23T05:44:05.094Z,991.37
2022-11-23T05:45:11.109Z,991.38
2022-11-23T05:46:07.417Z,991.36
2022-11-23T05:47:05.641Z,991.33
2022-11-23T05:48:05.814Z,991.35
2022-11-23T05:49:05.988Z,991.37
2022-11-23T05:50:06.154Z,991.43
2022-11-23T05:51:06.309Z,991.30
2022-11-23T05:52:07.079Z,991.40
2022-11-23T05:53:07.569Z,991.33
2022-11-23T05:54:06.978Z,991.35
2022-11-23T05:55:07.158Z,991.40
2022-11-23T05:56:07.338Z,991.41
2022-11-23T05:57:07.472Z,991.39
2022-11-23T05:58:07.617Z,991.36
2022-11-23T05:59:08.573Z,991.41
2022-11-23T06:00:08.083Z,991.38
2022-11-23T06:01:08.093Z,991.40
2022-11-23T06:02:08.244Z,991.49
2022-11-23T06:03:08.388Z,991.48
2022-11-23T06:04:08.622Z,991.48
2022-11-23T06:05:09.573Z,991.51
2022-11-23T06:06:08.964Z,991.41
2022-11-23T06:07:10.111Z,991.49
2022-11-23T06:08:09.258Z,991.48
2022-11-23T06:09:09.402Z,991.46
2022-11-23T06:10:09.541Z,991.39
2022-11-23T06:11:09.714Z,991.38
2022-11-23T06:12:09.851Z,991.49
2022-11-23T06:13:09.997Z,991.37
2022-11-23T06:14:14.159Z,991.32
2022-11-23T06:15:11.331Z,991.40
2022-11-23T06:16:10.488Z,991.38
2022-11-23T06:17:10.637Z,991.32
2022-11-23T06:18:11.085Z,991.45
2022-11-23T06:19:10.963Z,991.44
2022-11-23T06:20:12.077Z,991.39
2022-11-23T06:21:11.325Z,991.34
2022-11-23T06:22:12.079Z,991.46
2022-11-23T06:23:11.597Z,991.33
2022-11-23T06:24:11.745Z,991.44
2022-11-23T06:25:11.896Z,991.41
2022-11-23T06:26:12.035Z,991.37
2022-11-23T06:27:16.731Z,991.39
2022-11-23T06:28:14.313Z,991.34
2022-11-23T06:29:12.534Z,991.37
2022-11-23T06:30:12.668Z,991.34
2022-11-23T06:31:12.886Z,991.36
2022-11-23T06:32:13.048Z,991.33
2022-11-23T06:33:13.188Z,991.33
2022-11-23T06:34:13.356Z,991.32
2022-11-23T06:35:14.079Z,991.33
2022-11-23T06:36:14.579Z,991.34
2022-11-23T06:37:14.096Z,991.32
2022-11-23T06:38:14.683Z,991.33
2022-11-23T06:39:14.125Z,991.31
2022-11-23T06:40:14.320Z,991.34
2022-11-23T06:41:14.554Z,991.35
2022-11-23T06:43:16.900Z,991.37
2022-11-23T06:44:15.129Z,991.34
2022-11-23T06:45:15.319Z,991.44
2022-11-23T06:46:15.485Z,991.39
2022-11-23T06:47:18.371Z,991.42
2022-11-23T06:48:16.804Z,991.31
2022-11-23T06:49:15.926Z,991.41
2022-11-23T06:50:16.101Z,991.34
2022-11-23T06:51:16.257Z,991.37
2022-11-23T06:52:16.422Z,991.34
2022-11-23T06:53:17.108Z,991.42
2022-11-23T06:54:17.476Z,991.49
2022-11-23T06:55:17.024Z,991.44
2022-11-23T06:56:18.084Z,991.44
2022-11-23T06:57:17.355Z,991.47
2022-11-23T06:58:19.085Z,991.46
2022-11-23T06:59:17.703Z,991.44
2022-11-23T07:00:17.872Z,991.53
2022-11-23T07:01:18.084Z,991.44
2022-11-23T07:02:19.100Z,991.53
2022-11-23T07:03:19.132Z,991.56
2022-11-23T07:04:18.545Z,991.64
2022-11-23T07:05:18.697Z,991.55
2022-11-23T07:06:19.096Z,991.58
2022-11-23T07:07:19.694Z,991.63
2022-11-23T07:08:19.235Z,991.65
2022-11-23T07:09:19.433Z,991.68
2022-11-23T07:10:19.601Z,991.65
2022-11-23T07:11:19.753Z,991.64
2022-11-23T07:12:19.889Z,991.64
2022-11-23T07:13:20.022Z,991.68
2022-11-23T07:14:20.176Z,991.64
2022-11-23T07:15:20.604Z,991.70
2022-11-23T07:16:20.463Z,991.73
2022-11-23T07:17:20.608Z,991.68
2022-11-23T07:18:20.737Z,991.65
2022-11-23T07:19:20.864Z,991.65
2022-11-23T07:20:21.102Z,991.63
2022-11-23T07:21:21.219Z,991.60
2022-11-23T07:22:21.338Z,991.57
2022-11-23T07:23:21.485Z,991.61
2022-11-23T07:24:22.591Z,991.56
2022-11-23T07:25:22.108Z,991.61
2022-11-23T07:26:21.974Z,991.57
2022-11-23T07:27:22.123Z,991.66
2022-11-23T07:28:22.262Z,991.63
2022-11-23T07:29:23.090Z,991.58
2022-11-23T07:30:26.589Z,991.62
2022-11-23T07:31:25.111Z,991.68
2022-11-23T07:32:22.987Z,991.64
2022-11-23T07:33:23.123Z,991.66
2022-11-23T07:34:23.255Z,991.61
2022-11-23T07:35:23.380Z,991.61
2022-11-23T07:36:23.552Z,991.63
2022-11-23T07:37:23.714Z,991.61
2022-11-23T07:38:23.855Z,991.58
2022-11-23T07:39:42.006Z,991.61
2022-11-23T07:40:27.092Z,991.62
2022-11-23T07:41:24.554Z,991.59
2022-11-23T07:42:34.909Z,991.64
2022-11-23T07:43:27.597Z,991.59
2022-11-23T07:44:25.173Z,991.60
2022-11-23T07:45:25.307Z,991.63
2022-11-23T07:46:25.441Z,991.59
2022-11-23T07:47:25.658Z,991.61
2022-11-23T07:48:26.593Z,991.56
2022-11-23T07:49:26.093Z,991.55
2022-11-23T07:50:26.301Z,991.61
2022-11-23T07:51:26.615Z,991.55
2022-11-23T07:52:26.500Z,991.57
2022-11-23T07:53:26.617Z,991.60
2022-11-23T07:54:26.745Z,991.63
2022-11-23T07:55:26.867Z,991.61
2022-11-23T07:56:27.029Z,991.62
2022-11-23T07:57:28.106Z,991.53
2022-11-23T07:58:27.317Z,991.54
2022-11-23T07:59:27.460Z,991.57
2022-11-23T08:00:27.611Z,991.58
2022-11-23T08:01:27.761Z,991.62
2022-11-23T08:02:27.979Z,991.63
2022-11-23T08:03:29.059Z,991.59
2022-11-23T08:04:29.240Z,991.64
2022-11-23T08:05:28.388Z,991.70
2022-11-23T08:06:28.546Z,991.65
2022-11-23T08:07:28.768Z,991.63
2022-11-23T08:08:28.960Z,991.63
2022-11-23T08:09:29.105Z,991.62
2022-11-23T08:10:29.275Z,991.64
2022-11-23T08:11:29.465Z,991.64
2022-11-23T08:12:29.635Z,991.66
2022-11-23T08:13:29.817Z,991.60
2022-11-23T08:14:30.610Z,991.73
2022-11-23T08:15:30.147Z,991.69
2022-11-23T08:16:30.304Z,991.72
2022-11-23T08:17:30.471Z,991.73
2022-11-23T08:18:31.605Z,991.72
2022-11-23T08:19:31.114Z,991.77
2022-11-23T08:20:30.885Z,991.77
2022-11-23T08:21:31.042Z,991.65
2022-11-23T08:22:31.202Z,991.61
2022-11-23T08:23:31.356Z,991.62
2022-11-23T08:24:31.932Z,991.68
2022-11-23T08:25:31.700Z,991.57
2022-11-23T08:26:31.858Z,991.63
2022-11-23T08:27:32.032Z,991.59
2022-11-23T08:28:32.189Z,991.57
2022-11-23T08:29:32.341Z,991.62
2022-11-23T08:30:32.524Z,991.55
2022-11-23T08:31:32.694Z,991.51
2022-11-23T08:32:33.605Z,991.41
2022-11-23T08:33:34.108Z,991.04
2022-11-23T08:34:34.371Z,990.71
2022-11-23T08:35:33.486Z,990.29
2022-11-23T08:36:33.680Z,989.87
2022-11-23T08:37:33.825Z,989.58
2022-11-23T08:38:34.643Z,989.28
2022-11-23T08:39:34.177Z,989.03
2022-11-23T08:40:34.353Z,988.80
2022-11-23T08:41:34.542Z,988.65
2022-11-23T08:42:34.752Z,988.58
2022-11-23T08:43:34.934Z,988.47
2022-11-23T08:44:35.262Z,988.50
2022-11-23T08:45:36.121Z,988.52
2022-11-23T08:46:35.624Z,988.49
2022-11-23T08:47:35.711Z,988.49
2022-11-23T08:48:35.911Z,988.48
2022-11-23T08:49:36.616Z,988.49
2022-11-23T08:50:37.127Z,988.65
2022-11-23T08:51:36.538Z,988.64
2022-11-23T08:52:36.723Z,988.70
2022-11-23T08:53:37.131Z,988.72
2022-11-23T08:54:37.038Z,988.63
2022-11-23T08:55:38.131Z,988.64
2022-11-23T08:56:37.395Z,988.62
2022-11-23T08:57:37.571Z,988.42
2022-11-23T08:58:38.617Z,988.32
2022-11-23T08:59:37.888Z,988.07
2022-11-23T09:00:38.052Z,987.98
2022-11-23T09:01:38.254Z,987.77
2022-11-23T09:02:38.455Z,987.54
2022-11-23T09:03:38.663Z,987.47
2022-11-23T09:04:38.851Z,987.41
2022-11-23T09:05:39.042Z,987.35
2022-11-23T09:06:39.238Z,987.37
2022-11-23T09:07:40.179Z,987.40
2022-11-23T09:08:39.582Z,987.38
2022-11-23T09:09:39.746Z,987.38
2022-11-23T09:10:39.950Z,987.22
2022-11-23T09:11:40.117Z,987.22
2022-11-23T09:12:40.278Z,987.10
2022-11-23T09:13:40.435Z,986.92
2022-11-23T09:14:40.663Z,986.91
2022-11-23T09:15:40.850Z,986.71
2022-11-23T09:16:41.009Z,986.66
2022-11-23T09:17:41.159Z,986.64
2022-11-23T09:18:41.323Z,986.53
2022-11-23T09:19:42.132Z,986.45
2022-11-23T09:20:42.135Z,986.39
2022-11-23T09:21:41.883Z,986.26
2022-11-23T09:22:42.627Z,986.18
2022-11-23T09:23:42.290Z,986.08
2022-11-23T09:24:42.475Z,985.99
2022-11-23T09:25:42.655Z,985.96
2022-11-23T09:26:42.826Z,985.83
2022-11-23T09:27:43.625Z,985.77
2022-11-23T09:28:45.079Z,985.71
2022-11-23T09:29:44.366Z,985.71
2022-11-23T09:30:43.487Z,985.72
2022-11-23T09:31:43.651Z,985.75
2022-11-23T09:32:43.801Z,985.55
2022-11-23T09:33:43.967Z,985.65
2022-11-23T09:34:44.105Z,985.58
2022-11-23T09:35:44.442Z,985.65
2022-11-23T09:36:45.122Z,985.45
2022-11-23T09:37:44.651Z,985.49
2022-11-23T09:38:56.266Z,985.43
2022-11-23T09:39:46.960Z,985.43
2022-11-23T09:40:45.197Z,985.41
2022-11-23T09:41:45.394Z,985.36
2022-11-23T09:42:45.630Z,985.37
2022-11-23T09:43:45.793Z,985.35
2022-11-23T09:44:46.630Z,985.36
2022-11-23T09:45:47.125Z,985.35
2022-11-23T09:46:46.385Z,985.56
2022-11-23T09:47:46.578Z,985.50
2022-11-23T09:48:46.766Z,985.64
2022-11-23T09:49:47.637Z,985.76
2022-11-23T09:50:47.166Z,985.69
2022-11-23T09:51:48.191Z,985.74
2022-11-23T09:52:47.528Z,985.71
2022-11-23T09:53:48.636Z,985.71
2022-11-23T09:54:47.891Z,985.57
2022-11-23T09:55:48.059Z,985.60
2022-11-23T09:56:48.224Z,985.52
2022-11-23T09:57:48.393Z,985.60
2022-11-23T09:58:48.643Z,985.59
2022-11-23T09:59:48.700Z,985.61
2022-11-23T10:00:49.157Z,985.67
2022-11-23T10:01:49.137Z,985.69
2022-11-23T10:02:50.134Z,985.71
2022-11-23T10:03:49.618Z,985.62
2022-11-23T10:04:49.563Z,985.69
2022-11-23T10:05:49.779Z,985.74
2022-11-23T10:06:49.969Z,985.68
2022-11-23T10:07:51.166Z,985.77
2022-11-23T10:08:50.313Z,985.74
2022-11-23T10:09:50.537Z,985.98
2022-11-23T10:10:51.635Z,986.00
2022-11-23T10:11:50.948Z,985.93
2022-11-23T10:12:51.176Z,986.04
2022-11-23T10:13:51.352Z,986.01
2022-11-23T10:14:51.535Z,986.09
2022-11-23T10:15:51.723Z,986.22
2022-11-23T10:16:51.924Z,986.33
2022-11-23T10:17:52.157Z,986.12
2022-11-23T10:18:52.335Z,986.34
2022-11-23T10:19:52.519Z,986.30
2022-11-23T10:20:53.649Z,986.33
2022-11-23T10:21:52.932Z,986.35
2022-11-23T10:22:53.153Z,986.37
2022-11-23T10:23:53.303Z,986.44
2022-11-23T10:24:55.141Z,986.40
2022-11-23T10:25:54.143Z,986.67
2022-11-23T10:26:53.807Z,986.65
2022-11-23T10:27:54.031Z,986.52
2022-11-23T10:28:54.219Z,986.74
2022-11-23T10:29:54.414Z,986.82
2022-11-23T10:30:55.154Z,986.82
2022-11-23T10:31:57.273Z,987.00
2022-11-23T10:32:55.996Z,986.99
2022-11-23T10:33:55.125Z,986.99
2022-11-23T10:34:56.151Z,987.12
2022-11-23T10:35:55.537Z,986.97
2022-11-23T10:36:55.694Z,987.00
2022-11-23T10:37:55.855Z,986.88
2022-11-23T10:38:56.007Z,986.78
2022-11-23T10:39:56.163Z,986.89
2022-11-23T10:40:56.302Z,986.90
2022-11-23T10:41:56.685Z,986.87
2022-11-23T10:42:56.708Z,987.18
2022-11-23T10:43:56.942Z,987.19
2022-11-23T10:44:57.090Z,987.31
2022-11-23T10:45:59.806Z,987.49
2022-11-23T10:46:58.436Z,987.46
2022-11-23T10:47:58.648Z,987.50
2022-11-23T10:48:57.874Z,987.48
2022-11-23T10:49:58.027Z,987.62
2022-11-23T10:50:58.146Z,987.72
2022-11-23T10:51:58.422Z,988.00
2022-11-23T10:52:59.153Z,988.01
2022-11-23T10:54:04.750Z,988.18
2022-11-23T10:55:00.963Z,988.32
2022-11-23T10:56:00.158Z,988.52
2022-11-23T10:56:59.423Z,988.56
2022-11-23T10:57:59.593Z,988.62
2022-11-23T10:58:59.748Z,988.76
2022-11-23T10:59:59.901Z,988.85
2022-11-23T11:01:00.047Z,988.82
2022-11-23T11:02:00.309Z,988.82
2022-11-23T11:03:00.386Z,988.82
2022-11-23T11:04:00.548Z,988.83
2022-11-23T11:05:00.697Z,988.90
2022-11-23T11:06:10.239Z,988.89
2022-11-23T11:07:03.180Z,989.10
2022-11-23T11:08:01.196Z,989.16
2022-11-23T11:09:03.461Z,989.23
2022-11-23T11:10:02.574Z,989.42
2022-11-23T11:11:01.718Z,989.50
2022-11-23T11:12:01.880Z,989.43
2022-11-23T11:13:02.036Z,989.42
2022-11-23T11:14:02.213Z,989.40
2022-11-23T11:15:10.921Z,989.50
2022-11-23T11:16:04.546Z,989.61
2022-11-23T11:17:02.675Z,989.72
2022-11-23T11:18:02.867Z,989.74
2022-11-23T11:19:03.026Z,989.74
2022-11-23T11:20:03.206Z,989.82
2022-11-23T11:21:04.159Z,989.79
2022-11-23T11:22:03.569Z,989.84
2022-11-23T11:23:03.752Z,989.88
2022-11-23T11:24:03.940Z,989.87
2022-11-23T11:25:04.665Z,989.82
2022-11-23T11:26:04.311Z,989.94
2022-11-23T11:27:04.675Z,989.81
2022-11-23T11:28:04.719Z,989.77
2022-11-23T11:29:04.936Z,989.71
2022-11-23T11:30:05.116Z,989.79
2022-11-23T11:31:06.168Z,989.68
2022-11-23T11:32:05.484Z,989.60
2022-11-23T11:33:06.713Z,989.70
2022-11-23T11:34:06.661Z,989.72
2022-11-23T11:35:06.098Z,989.62
2022-11-23T11:36:06.287Z,989.64
2022-11-23T11:37:06.476Z,989.66
2022-11-23T11:38:06.695Z,989.76
2022-11-23T11:39:18.384Z,989.66
2022-11-23T11:40:09.664Z,989.61
2022-11-23T11:41:07.166Z,989.66
2022-11-23T11:42:07.364Z,989.57
2022-11-23T11:43:07.678Z,989.50
2022-11-23T11:44:07.719Z,989.48
2022-11-23T11:45:08.695Z,989.43
2022-11-23T11:46:33.117Z,989.53
2022-11-23T11:47:11.166Z,989.49
2022-11-23T11:48:08.421Z,989.42
2022-11-23T11:49:09.166Z,989.42
2022-11-23T11:50:08.814Z,989.45
2022-11-23T11:51:08.959Z,989.47
2022-11-23T11:52:09.670Z,989.58
2022-11-23T11:53:09.335Z,989.43
2022-11-23T11:54:09.540Z,989.56
2022-11-23T11:55:09.768Z,989.46
2022-11-23T11:56:09.944Z,989.41
2022-11-23T11:57:10.669Z,989.50
2022-11-23T11:58:10.391Z,989.44
2022-11-23T11:59:11.192Z,989.37
2022-11-23T12:00:10.728Z,989.28
2022-11-23T12:01:11.669Z,989.29
2022-11-23T12:02:11.050Z,989.25
2022-11-23T12:03:12.218Z,989.35
2022-11-23T12:04:11.337Z,989.08
2022-11-23T12:05:11.687Z,989.12
2022-11-23T12:06:11.716Z,989.18
2022-11-23T12:07:12.709Z,989.22
2022-11-23T12:08:12.100Z,989.13
2022-11-23T12:09:12.244Z,989.12
2022-11-23T12:10:12.868Z,989.19
2022-11-23T12:11:12.535Z,989.27
2022-11-23T12:12:12.684Z,989.22
2022-11-23T12:13:12.860Z,989.34
2022-11-23T12:14:13.027Z,989.31
2022-11-23T12:15:33.596Z,989.25
2022-11-23T12:16:15.330Z,989.17
2022-11-23T12:18:15.699Z,989.24
2022-11-23T12:19:13.833Z,989.25
2022-11-23T12:20:14.664Z,989.24
2022-11-23T12:21:15.229Z,989.29
2022-11-23T12:22:14.404Z,989.24
2022-11-23T12:23:15.193Z,989.29
2022-11-23T12:24:14.703Z,989.36
2022-11-23T12:25:15.679Z,989.24
2022-11-23T12:26:15.673Z,989.26
2022-11-23T12:27:15.203Z,989.29
2022-11-23T12:28:15.391Z,989.33
2022-11-23T12:29:15.690Z,989.35
2022-11-23T12:30:16.080Z,989.27
2022-11-23T12:31:15.832Z,989.39
2022-11-23T12:32:15.992Z,989.32